Time;durP1;ratioP1;P1;durP2;ratioP2;P2;SDS_P1;SDS_P2;PMS_P1;PMS_P2;Temp;Humidity;BMP_temperature;BMP_pressure;BME280_temperature;BME280_humidity;BME280_pressure;Samples;Min_cycle;Max_cycle;Signal;HPM_P1;HPM_P2
2023/04/25 00:01:21;;;;;;;0.50;0.50;;;;;;;4.48;100.00;99922.31;7391973;19;20051;-85
2023/04/25 00:03:48;;;;;;;0.20;0.20;;;;;;;4.45;100.00;99923.22;7391751;19;20021;-85
2023/04/25 00:06:14;;;;;;;0.88;0.88;;;;;;;4.36;100.00;99936.03;7392151;19;20022;-85
2023/04/25 00:08:41;;;;;;;0.40;0.40;;;;;;;5.42;100.00;99922.13;7393751;19;20018;-85
2023/04/25 00:11:07;;;;;;;1.55;1.10;;;;;;;4.52;100.00;99928.53;7393401;19;20453;-85
2023/04/25 00:13:33;;;;;;;0.57;0.57;;;;;;;4.09;100.00;99941.03;7393922;19;20018;-85
2023/04/25 00:16:00;;;;;;;1.00;1.00;;;;;;;4.08;100.00;99934.75;7392410;19;20039;-84
2023/04/25 00:18:28;;;;;;;0.25;0.25;;;;;;;4.05;100.00;99943.09;7391572;19;20018;-84
2023/04/25 00:20:55;;;;;;;0.70;0.70;;;;;;;4.61;100.00;99936.97;7396001;19;20041;-84
2023/04/25 00:23:21;;;;;;;0.95;0.95;;;;;;;4.58;100.00;99932.31;7396796;19;20011;-85
2023/04/25 00:25:49;;;;;;;2.58;1.25;;;;;;;4.32;100.00;99935.34;7395447;19;20073;-84
2023/04/25 00:28:15;;;;;;;0.82;0.82;;;;;;;3.98;100.00;99933.03;7392660;19;20429;-84
2023/04/25 00:30:42;;;;;;;0.35;0.35;;;;;;;3.88;100.00;99931.28;7393032;19;20018;-90
2023/04/25 00:33:09;;;;;;;0.57;0.57;;;;;;;4.15;100.00;99934.59;7395832;19;20014;-85
2023/04/25 00:35:36;;;;;;;0.65;0.65;;;;;;;4.08;100.00;99929.22;7393739;19;20363;-86
2023/04/25 00:38:02;;;;;;;0.65;0.65;;;;;;;3.98;100.00;99935.00;7391880;19;20043;-86
2023/04/25 00:40:29;;;;;;;0.50;0.50;;;;;;;3.56;100.00;99934.75;7391151;19;20461;-87
2023/04/25 00:42:55;;;;;;;0.70;0.68;;;;;;;3.40;100.00;99942.19;7392055;19;20013;-85
2023/04/25 00:45:21;;;;;;;0.88;0.88;;;;;;;3.37;100.00;99943.03;7391574;19;20003;-86
2023/04/25 00:47:47;;;;;;;0.75;0.75;;;;;;;3.32;100.00;99943.50;7388856;19;20350;-85
2023/04/25 00:50:13;;;;;;;0.50;0.50;;;;;;;2.99;100.00;99943.38;7392406;19;20513;-86
2023/04/25 00:52:42;;;;;;;3.55;0.73;;;;;;;4.26;100.00;99937.88;7394584;19;20007;-87
2023/04/25 00:55:10;;;;;;;0.90;0.90;;;;;;;3.86;100.00;99944.69;7393076;19;20392;-86
2023/04/25 00:57:37;;;;;;;0.60;0.60;;;;;;;3.55;100.00;99946.19;7388731;19;20086;-86
2023/04/25 01:00:09;;;;;;;0.80;0.80;;;;;;;3.28;100.00;99945.56;7391309;19;20039;-86
2023/04/25 01:02:35;;;;;;;0.85;0.85;;;;;;;3.36;100.00;99953.25;7392770;19;20026;-86
2023/04/25 01:05:03;;;;;;;0.32;0.32;;;;;;;3.40;100.00;99948.44;7389596;19;20078;-86
2023/04/25 01:07:30;;;;;;;1.38;1.20;;;;;;;3.30;100.00;99949.44;7391468;19;20019;-86
2023/04/25 01:09:56;;;;;;;0.73;0.73;;;;;;;3.28;100.00;99953.81;7392557;19;20043;-86
2023/04/25 01:12:23;;;;;;;11.45;1.10;;;;;;;3.42;100.00;99956.28;7394140;19;20010;-86
2023/04/25 01:14:49;;;;;;;0.90;0.90;;;;;;;3.39;100.00;99957.91;7392181;19;20028;-87
2023/04/25 01:17:17;;;;;;;0.80;0.80;;;;;;;3.19;100.00;99953.59;7390054;19;20018;-86
2023/04/25 01:19:44;;;;;;;0.47;0.47;;;;;;;3.35;100.00;99954.47;7391927;19;20022;-86
2023/04/25 01:22:10;;;;;;;0.82;0.82;;;;;;;3.23;100.00;99955.09;7391796;19;20015;-87
2023/04/25 01:24:37;;;;;;;0.57;0.57;;;;;;;2.99;100.00;99962.63;7388208;19;20022;-86
2023/04/25 01:27:04;;;;;;;0.73;0.73;;;;;;;3.80;100.00;99960.19;7389017;19;20015;-78
2023/04/25 01:29:32;;;;;;;2.30;0.93;;;;;;;2.80;100.00;99966.13;7388270;19;20014;-78
2023/04/25 01:31:59;;;;;;;0.60;0.60;;;;;;;3.11;100.00;99960.44;7389882;19;20094;-79
2023/04/25 01:34:25;;;;;;;0.70;0.70;;;;;;;2.95;100.00;99966.63;7397367;19;20018;-82
2023/04/25 01:36:53;;;;;;;0.65;0.65;;;;;;;4.20;100.00;99950.59;7392667;19;20014;-81
2023/04/25 01:39:20;;;;;;;1.02;1.02;;;;;;;3.06;100.00;99962.50;7391781;19;20500;-85
2023/04/25 01:41:47;;;;;;;0.90;0.90;;;;;;;2.93;100.00;99956.06;7394925;19;20030;-83
2023/04/25 01:44:14;;;;;;;0.73;0.73;;;;;;;2.87;100.00;99960.50;7393309;19;20039;-81
2023/04/25 01:46:41;;;;;;;1.38;0.43;;;;;;;2.46;100.00;99957.28;7391729;19;20022;-83
2023/04/25 01:49:07;;;;;;;0.60;0.60;;;;;;;2.64;100.00;99959.75;7395071;19;20039;-79
2023/04/25 01:51:33;;;;;;;0.70;0.70;;;;;;;4.79;100.00;99955.81;7395856;19;20460;-77
2023/04/25 01:54:00;;;;;;;0.63;0.63;;;;;;;6.36;100.00;99950.84;7395123;19;20045;-77
2023/04/25 01:56:30;;;;;;;1.33;0.85;;;;;;;6.99;100.00;99948.72;7398495;19;20026;-79
2023/04/25 01:58:57;;;;;;;0.55;0.55;;;;;;;4.31;100.00;99945.59;7394348;19;20011;-76
2023/04/25 02:01:35;;;;;;;1.10;1.10;;;;;;;3.68;100.00;99947.09;7393483;19;20018;-78
2023/04/25 02:04:16;;;;;;;1.52;1.52;;;;;;;3.38;100.00;99956.34;7392168;19;20030;-78
2023/04/25 02:06:43;;;;;;;0.77;0.77;;;;;;;2.71;100.00;99957.63;7393068;19;20022;-81
2023/04/25 02:09:10;;;;;;;1.00;0.90;;;;;;;2.99;100.00;99954.38;7395528;19;20014;-78
2023/04/25 02:11:41;;;;;;;0.63;0.63;;;;;;;2.21;100.00;99959.66;7396237;19;20015;-88
2023/04/25 02:14:33;;;;;;;0.75;0.75;;;;;;;3.64;100.00;99969.19;7396973;19;20011;-88
2023/04/25 02:17:14;;;;;;;0.88;0.88;;;;;;;3.15;100.00;99970.19;7395314;19;20025;-88
2023/04/25 02:19:40;;;;;;;0.40;0.40;;;;;;;7.00;100.00;99966.84;7395283;19;20034;-87
2023/04/25 02:22:07;;;;;;;17.10;1.67;;;;;;;4.32;100.00;99969.22;7394201;19;20089;-87
2023/04/25 02:24:34;;;;;;;2.20;1.27;;;;;;;4.08;100.00;99965.06;7393408;19;20477;-87
2023/04/25 02:27:00;;;;;;;0.93;0.93;;;;;;;10.01;94.18;99956.84;7398980;19;20376;-87
2023/04/25 02:29:29;;;;;;;0.85;0.85;;;;;;;6.55;100.00;99964.44;7396539;19;20521;-87
2023/04/25 02:31:55;;;;;;;0.90;0.90;;;;;;;3.73;100.00;99965.84;7398230;19;20044;-86
2023/04/25 02:34:21;;;;;;;0.85;0.85;;;;;;;3.21;100.00;99973.22;7395725;19;20014;-87
2023/04/25 02:36:50;;;;;;;0.82;0.82;;;;;;;5.06;100.00;99967.31;7394791;19;20082;-86
2023/04/25 02:39:17;;;;;;;4.03;0.82;;;;;;;2.97;100.00;99976.03;7392569;19;20046;-86
2023/04/25 02:41:44;;;;;;;0.95;0.95;;;;;;;2.69;100.00;99976.53;7392808;19;20031;-87
2023/04/25 02:44:10;;;;;;;0.65;0.65;;;;;;;2.56;100.00;99970.06;7389330;19;20094;-86
2023/04/25 02:46:37;;;;;;;2.95;0.95;;;;;;;2.46;100.00;99978.50;7395027;19;20035;-86
2023/04/25 02:49:03;;;;;;;0.40;0.40;;;;;;;3.49;100.00;99972.63;7399273;19;20018;-86
2023/04/25 02:51:30;;;;;;;0.60;0.60;;;;;;;2.80;100.00;99977.13;7395633;19;20045;-86
2023/04/25 02:53:56;;;;;;;0.40;0.40;;;;;;;2.26;100.00;99989.41;7394881;19;20010;-86
2023/04/25 02:56:22;;;;;;;0.85;0.85;;;;;;;2.11;100.00;99990.81;7397013;19;20014;-86
2023/04/25 02:58:48;;;;;;;4.18;1.38;;;;;;;1.98;100.00;99987.09;7390900;19;20015;-86
2023/04/25 03:01:15;;;;;;;4.78;0.75;;;;;;;1.89;100.00;99995.06;7389933;19;20010;-85
2023/04/25 03:03:41;;;;;;;0.73;0.73;;;;;;;2.40;100.00;99991.94;7395427;19;20587;-86
2023/04/25 03:06:07;;;;;;;0.90;0.90;;;;;;;3.07;100.00;99986.03;7391676;19;20019;-85
2023/04/25 03:08:34;;;;;;;1.17;1.17;;;;;;;2.78;100.00;99990.50;7394354;19;20053;-86
2023/04/25 03:11:01;;;;;;;1.02;1.02;;;;;;;2.92;100.00;99993.00;7392930;19;20014;-85
2023/04/25 03:13:29;;;;;;;1.33;1.17;;;;;;;2.93;100.00;99989.06;7397910;19;20362;-85
2023/04/25 03:15:56;;;;;;;0.73;0.73;;;;;;;2.70;100.00;99978.09;7394843;19;20035;-86
2023/04/25 03:18:22;;;;;;;0.60;0.60;;;;;;;2.83;100.00;99987.28;7391676;19;20026;-86
2023/04/25 03:20:48;;;;;;;1.00;0.95;;;;;;;2.95;100.00;99978.41;7399787;19;20022;-86
2023/04/25 03:23:14;;;;;;;1.00;1.00;;;;;;;3.27;100.00;99979.78;7397626;19;20010;-85
2023/04/25 03:25:42;;;;;;;0.93;0.93;;;;;;;2.70;100.00;99989.09;7397327;19;20019;-85
2023/04/25 03:28:09;;;;;;;0.82;0.82;;;;;;;2.38;100.00;99993.56;7390892;19;21165;-85
2023/04/25 03:30:35;;;;;;;0.43;0.43;;;;;;;5.30;100.00;99987.19;7393167;19;20014;-85
2023/04/25 03:33:01;;;;;;;0.68;0.68;;;;;;;3.64;100.00;100002.22;7396770;19;20022;-85
2023/04/25 03:35:28;;;;;;;0.88;0.88;;;;;;;3.12;100.00;100004.03;7395491;19;20029;-85
2023/04/25 03:37:54;;;;;;;0.98;0.90;;;;;;;3.04;100.00;99997.13;7391866;19;20031;-85
2023/04/25 03:40:26;;;;;;;0.75;0.75;;;;;;;6.68;99.91;99992.06;7392109;19;20035;-85
2023/04/25 03:43:12;;;;;;;1.20;1.20;;;;;;;4.41;100.00;100005.25;7394006;19;20010;-84
2023/04/25 03:45:42;;;;;;;0.68;0.68;;;;;;;4.91;100.00;100004.00;7391852;19;20010;-85
2023/04/25 03:48:08;;;;;;;0.82;0.82;;;;;;;4.02;100.00;100005.34;7391939;19;20078;-85
2023/04/25 03:50:35;;;;;;;7.55;1.95;;;;;;;3.26;100.00;100011.25;7393901;19;20014;-84
2023/04/25 03:53:01;;;;;;;0.88;0.88;;;;;;;8.86;99.93;100008.84;7397980;19;20007;-85
2023/04/25 03:55:31;;;;;;;0.73;0.73;;;;;;;14.47;64.52;99982.50;7393650;19;20021;-84
2023/04/25 03:57:58;;;;;;;0.93;0.93;;;;;;;7.42;78.24;100004.13;7390344;19;20345;-85
2023/04/25 04:00:25;;;;;;;1.00;1.00;;;;;;;3.33;100.00;100013.88;7389668;19;20021;-84
2023/04/25 04:02:52;;;;;;;1.20;1.10;;;;;;;2.66;100.00;100020.59;7391792;19;20017;-84
2023/04/25 04:05:18;;;;;;;0.63;0.63;;;;;;;2.48;100.00;100026.38;7391277;19;20019;-84
2023/04/25 04:07:51;;;;;;;0.88;0.88;;;;;;;11.56;94.09;100004.84;7390741;19;20022;-84
2023/04/25 04:10:17;;;;;;;1.30;1.30;;;;;;;15.55;56.52;99998.09;7392476;19;20035;-84
2023/04/25 04:12:44;;;;;;;0.80;0.80;;;;;;;6.07;91.79;100023.63;7394433;19;20414;-84
2023/04/25 04:15:11;;;;;;;0.98;0.98;;;;;;;3.80;100.00;100020.78;7390989;19;20021;-84
2023/04/25 04:17:37;;;;;;;1.20;1.15;;;;;;;3.91;100.00;100015.81;7389821;19;20082;-84
2023/04/25 04:20:05;;;;;;;3.03;0.98;;;;;;;5.81;100.00;100010.94;7391729;19;20010;-83
2023/04/25 04:22:32;;;;;;;3.70;0.85;;;;;;;3.57;100.00;100023.63;7392143;19;20018;-83
2023/04/25 04:25:05;;;;;;;1.48;1.15;;;;;;;8.09;99.94;100011.94;7390553;19;20035;-84
2023/04/25 04:27:54;;;;;;;2.72;1.48;;;;;;;15.46;59.13;99989.91;7391356;19;20015;-84
2023/04/25 04:30:37;;;;;;;0.90;0.90;;;;;;;14.49;52.18;99987.59;7391284;19;20043;-84
2023/04/25 04:33:07;;;;;;;0.77;0.77;;;;;;;17.34;46.78;99982.09;7394647;19;20031;-83
2023/04/25 04:35:33;;;;;;;1.13;1.02;;;;;;;5.44;91.52;100002.56;7391228;19;20024;-83
2023/04/25 04:38:00;;;;;;;2.17;2.13;;;;;;;5.02;95.51;100007.25;7388415;19;20045;-84
2023/04/25 04:40:31;;;;;;;2.03;1.95;;;;;;;7.73;81.74;100006.19;7388969;19;20104;-83
2023/04/25 04:43:23;;;;;;;3.65;2.00;;;;;;;6.46;89.73;100010.56;7393785;19;20082;-83
2023/04/25 04:46:06;;;;;;;4.25;3.35;;;;;;;3.95;100.00;100022.03;7389785;19;20473;-84
2023/04/25 04:48:44;;;;;;;0.93;0.93;;;;;;;5.42;100.00;100022.34;7391103;19;20022;-83
2023/04/25 04:51:29;;;;;;;5.38;2.28;;;;;;;8.27;92.87;100006.53;7391612;19;20485;-84
2023/04/25 04:54:18;;;;;;;0.90;0.90;;;;;;;3.08;100.00;100017.09;7391663;19;20019;-83
2023/04/25 04:57:05;;;;;;;4.38;1.52;;;;;;;2.54;100.00;100012.91;7389092;19;20082;-83
2023/04/25 05:00:00;;;;;;;1.75;1.67;;;;;;;3.65;100.00;100014.00;7393544;19;20491;-83
2023/04/25 05:02:41;;;;;;;;;;;;;;;2.53;100.00;100025.13;7417993;19;20031;-83
2023/04/25 05:05:43;;;;;;;1.30;1.07;;;;;;;2.25;100.00;100026.34;7416628;19;19921;-84
2023/04/25 05:08:29;;;;;;;2.13;1.75;;;;;;;2.34;100.00;100043.06;7418772;19;20061;-83
2023/04/25 05:11:27;;;;;;;1.52;1.52;;;;;;;2.64;100.00;100040.22;7418518;19;20017;-82
2023/04/25 05:14:12;;;;;;;0.98;0.98;;;;;;;2.62;100.00;100039.88;7419847;19;20019;-83
2023/04/25 05:17:08;;;;;;;1.10;1.10;;;;;;;2.36;100.00;100040.66;7416201;19;20014;-82
2023/04/25 05:20:08;;;;;;;;;;;;;;;2.45;100.00;100043.69;7414743;19;20011;-83
2023/04/25 05:23:04;;;;;;;0.80;0.80;;;;;;;2.24;100.00;100047.53;7419115;19;20255;-79
2023/04/25 05:25:42;;;;;;;1.05;1.05;;;;;;;2.75;100.00;100048.31;7399160;19;20692;-80
2023/04/25 05:28:31;;;;;;;2.63;1.08;;;;;;;2.41;100.00;100067.69;7399383;19;20082;-81
2023/04/25 05:31:15;;;;;;;3.83;1.83;;;;;;;2.97;100.00;100069.53;7395634;19;20014;-80
2023/04/25 05:33:56;;;;;;;0.85;0.85;;;;;;;2.61;100.00;100068.56;7393904;19;20017;-80
2023/04/25 05:36:26;;;;;;;2.45;2.20;;;;;;;2.42;100.00;100066.50;7393260;19;20014;-80
2023/04/25 05:38:52;;;;;;;0.60;0.60;;;;;;;2.52;100.00;100071.06;7393753;19;20014;-80
2023/04/25 05:41:21;;;;;;;1.23;1.23;;;;;;;2.64;100.00;100073.22;7394042;19;20016;-80
2023/04/25 05:43:58;;;;;;;2.20;1.95;;;;;;;2.98;100.00;100082.13;7392541;19;20462;-80
2023/04/25 05:46:28;;;;;;;1.07;1.07;;;;;;;2.88;100.00;100077.53;7391990;19;20018;-80
2023/04/25 05:49:09;;;;;;;1.67;1.58;;;;;;;2.71;100.00;100081.34;7395111;19;20019;-80
2023/04/25 05:52:01;;;;;;;1.67;1.63;;;;;;;2.79;100.00;100073.78;7396375;19;20022;-80
2023/04/25 05:54:45;;;;;;;2.85;1.73;;;;;;;2.72;100.00;100080.19;7397277;19;20014;-80
2023/04/25 05:57:25;;;;;;;0.80;0.80;;;;;;;2.79;100.00;100082.81;7392839;19;20018;-80
2023/04/25 05:59:52;;;;;;;0.70;0.70;;;;;;;2.86;100.00;100085.44;7391602;19;20022;-80
2023/04/25 06:02:20;;;;;;;1.88;1.77;;;;;;;2.98;100.00;100087.63;7393097;19;20039;-80
2023/04/25 06:04:51;;;;;;;1.17;1.17;;;;;;;3.53;100.00;100084.25;7392502;19;20021;-80
2023/04/25 06:07:18;;;;;;;3.38;1.45;;;;;;;3.49;100.00;100085.50;7394169;19;20044;-80
2023/04/25 06:09:44;;;;;;;2.30;1.48;;;;;;;3.27;100.00;100081.63;7394467;19;20019;-80
2023/04/25 06:12:10;;;;;;;0.90;0.73;;;;;;;4.77;100.00;100076.84;7394201;19;20033;-80
2023/04/25 06:14:38;;;;;;;0.75;0.75;;;;;;;5.97;100.00;100080.00;7395302;19;20018;-80
2023/04/25 06:17:08;;;;;;;0.85;0.85;;;;;;;4.27;100.00;100084.72;7393065;19;20022;-80
2023/04/25 06:19:37;;;;;;;4.68;1.25;;;;;;;4.10;100.00;100094.13;7392867;19;20014;-80
2023/04/25 06:22:04;;;;;;;1.88;1.77;;;;;;;3.62;100.00;100101.00;7392078;19;20018;-80
2023/04/25 06:24:32;;;;;;;0.70;0.70;;;;;;;3.48;100.00;100098.53;7391802;19;20082;-81
2023/04/25 06:26:58;;;;;;;1.15;1.15;;;;;;;3.46;100.00;100097.38;7396587;19;20540;-80
2023/04/25 06:29:24;;;;;;;0.77;0.77;;;;;;;3.57;100.00;100090.47;7396084;19;20023;-80
2023/04/25 06:31:50;;;;;;;0.30;0.30;;;;;;;3.76;100.00;100089.72;7395230;19;20019;-80
2023/04/25 06:34:17;;;;;;;0.52;0.52;;;;;;;4.15;100.00;100102.69;7394281;19;20036;-80
2023/04/25 06:36:44;;;;;;;0.63;0.63;;;;;;;3.89;100.00;100103.63;7392791;19;20022;-80
2023/04/25 06:39:13;;;;;;;1.48;1.20;;;;;;;8.19;100.00;100099.50;7391201;19;20480;-80
2023/04/25 06:41:39;;;;;;;0.52;0.52;;;;;;;10.83;100.00;100082.59;7394391;19;20060;-81
2023/04/25 06:44:09;;;;;;;1.85;0.75;;;;;;;15.08;60.47;100073.38;7391194;19;20015;-81
2023/04/25 06:46:40;;;;;;;1.30;1.05;;;;;;;13.89;61.20;100087.38;7390858;19;20018;-81
2023/04/25 06:49:06;;;;;;;0.82;0.82;;;;;;;6.70;100.00;100105.84;7392883;19;20082;-81
2023/04/25 06:51:33;;;;;;;8.27;1.83;;;;;;;5.38;100.00;100105.28;7392657;19;20092;-81
2023/04/25 06:53:59;;;;;;;1.10;1.00;;;;;;;4.97;100.00;100109.88;7392823;19;20015;-81
2023/04/25 06:56:31;;;;;;;1.23;0.77;;;;;;;4.72;100.00;100112.47;7396505;19;20015;-81
2023/04/25 06:59:08;;;;;;;1.92;1.05;;;;;;;13.09;94.94;100096.53;7390784;19;20014;-81
2023/04/25 07:01:40;;;;;;;2.95;0.82;;;;;;;11.54;77.91;100102.16;7391830;19;20018;-81
2023/04/25 07:04:13;;;;;;;10.52;1.65;;;;;;;7.26;100.00;100106.78;7390803;19;20469;-81
2023/04/25 07:06:46;;;;;;;1.05;1.00;;;;;;;12.62;92.21;100094.00;7391596;19;20613;-81
2023/04/25 07:09:12;;;;;;;0.63;0.63;;;;;;;10.00;97.61;100099.22;7395008;19;20501;-81
2023/04/25 07:11:40;;;;;;;0.90;0.90;;;;;;;13.28;87.00;100100.59;7392137;19;20011;-82
2023/04/25 07:14:07;;;;;;;1.00;1.00;;;;;;;13.09;75.94;100104.16;7393167;19;20010;-82
2023/04/25 07:16:33;;;;;;;1.60;1.02;;;;;;;8.68;100.00;100111.53;7391815;19;20052;-82
2023/04/25 07:19:00;;;;;;;0.30;0.30;;;;;;;7.50;100.00;100109.94;7390520;19;20503;-81
2023/04/25 07:21:27;;;;;;;1.55;1.15;;;;;;;6.66;100.00;100114.28;7390864;19;20014;-83
2023/04/25 07:23:53;;;;;;;2.38;2.20;;;;;;;6.72;100.00;100111.72;7390871;19;20350;-82
2023/04/25 07:26:25;;;;;;;3.85;0.95;;;;;;;9.47;100.00;100113.44;7393585;19;20391;-82
2023/04/25 07:29:10;;;;;;;0.47;0.47;;;;;;;9.33;100.00;100114.06;7391764;19;20019;-82
2023/04/25 07:31:36;;;;;;;0.60;0.60;;;;;;;7.41;100.00;100118.94;7390796;19;20025;-82
2023/04/25 07:34:02;;;;;;;1.20;0.75;;;;;;;8.88;100.00;100128.56;7391930;19;20022;-83
2023/04/25 07:36:28;;;;;;;3.03;0.57;;;;;;;7.86;100.00;100120.56;7392030;19;20018;-84
2023/04/25 07:38:55;;;;;;;1.63;0.93;;;;;;;7.97;100.00;100129.28;7390403;19;20014;-84
2023/04/25 07:41:21;;;;;;;0.90;0.60;;;;;;;7.15;100.00;100134.06;7390773;19;20140;-84
2023/04/25 07:43:47;;;;;;;0.50;0.50;;;;;;;7.90;100.00;100132.31;7389420;19;20018;-83
2023/04/25 07:46:13;;;;;;;0.63;0.63;;;;;;;8.50;100.00;100125.31;7391455;19;20361;-85
2023/04/25 07:48:39;;;;;;;1.42;0.70;;;;;;;8.56;100.00;100123.50;7392706;19;20018;-84
2023/04/25 07:51:07;;;;;;;0.50;0.50;;;;;;;17.39;65.89;100116.44;7392346;19;20014;-84
2023/04/25 07:53:37;;;;;;;2.30;1.50;;;;;;;18.54;56.36;100116.41;7397122;19;20014;-85
2023/04/25 07:56:07;;;;;;;0.60;0.60;;;;;;;15.84;56.26;100121.22;7394727;19;20569;-85
2023/04/25 07:58:37;;;;;;;0.60;0.60;;;;;;;18.98;52.00;100131.44;7391497;19;20019;-85
2023/04/25 08:01:04;;;;;;;0.35;0.35;;;;;;;18.94;50.24;100131.75;7392479;19;20015;-84
2023/04/25 08:03:51;;;;;;;0.80;0.80;;;;;;;19.38;48.19;100119.28;7393066;19;20014;-85
2023/04/25 08:06:40;;;;;;;0.93;0.93;;;;;;;19.35;46.72;100118.28;7391177;19;20015;-85
2023/04/25 08:09:16;;;;;;;0.50;0.50;;;;;;;19.19;46.26;100130.47;7392107;19;20014;-85
2023/04/25 08:11:43;;;;;;;5.05;0.65;;;;;;;12.85;59.27;100140.63;7391599;19;20018;-85
2023/04/25 08:14:12;;;;;;;7.60;1.92;;;;;;;19.24;48.12;100118.34;7391070;19;20014;-84
2023/04/25 08:16:39;;;;;;;1.05;0.85;;;;;;;20.46;44.90;100116.84;7390383;19;20018;-85
2023/04/25 08:19:06;;;;;;;1.13;1.02;;;;;;;20.86;43.19;100118.50;7389707;19;20007;-85
2023/04/25 08:21:32;;;;;;;0.30;0.30;;;;;;;20.99;41.50;100127.03;7389075;19;20391;-84
2023/04/25 08:24:02;;;;;;;0.35;0.28;;;;;;;16.82;46.84;100126.75;7388249;19;20018;-85
2023/04/25 08:26:32;;;;;;;1.35;0.82;;;;;;;15.58;46.82;100137.44;7393308;19;20036;-84
2023/04/25 08:28:59;;;;;;;1.17;1.02;;;;;;;18.46;43.38;100118.28;7391335;19;20015;-84
2023/04/25 08:31:25;;;;;;;0.47;0.47;;;;;;;18.67;44.62;100124.25;7390316;19;20361;-84
2023/04/25 08:33:57;;;;;;;9.52;0.38;;;;;;;20.15;41.52;100121.13;7389060;19;20539;-84
2023/04/25 08:36:52;;;;;;;0.30;0.30;;;;;;;15.19;44.76;100135.16;7390112;19;20024;-84
2023/04/25 08:39:38;;;;;;;0.60;0.60;;;;;;;18.40;44.80;100133.66;7389074;19;20035;-84
2023/04/25 08:42:24;;;;;;;0.50;0.50;;;;;;;19.22;42.40;100132.25;7392677;19;20552;-84
2023/04/25 08:44:52;;;;;;;0.40;0.40;;;;;;;17.77;40.53;100130.94;7389600;19;20015;-84
2023/04/25 08:47:22;;;;;;;0.90;0.90;;;;;;;15.94;43.11;100131.72;7387539;19;20349;-84
2023/04/25 08:49:53;;;;;;;0.43;0.43;;;;;;;19.02;40.42;100137.56;7389682;19;20027;-84
2023/04/25 08:52:24;;;;;;;0.32;0.32;;;;;;;21.31;36.83;100129.06;7391712;19;20014;-84
2023/04/25 08:54:54;;;;;;;0.77;0.77;;;;;;;21.13;36.02;100139.94;7390264;19;20021;-82
2023/04/25 08:57:21;;;;;;;0.73;0.73;;;;;;;21.99;34.81;100125.13;7387415;19;20019;-82
2023/04/25 08:59:49;;;;;;;0.55;0.55;;;;;;;20.60;37.20;100126.91;7386358;19;20604;-81
2023/04/25 09:02:18;;;;;;;3.38;0.75;;;;;;;22.58;34.01;100127.16;7387403;19;20018;-82
2023/04/25 09:04:48;;;;;;;0.32;0.32;;;;;;;19.57;36.49;100139.84;7386620;19;20363;-83
2023/04/25 09:07:18;;;;;;;1.65;0.50;;;;;;;22.60;33.40;100132.28;7387996;19;20042;-82
2023/04/25 09:09:44;;;;;;;0.40;0.30;;;;;;;22.53;31.82;100133.72;7389867;19;20036;-83
2023/04/25 09:12:11;;;;;;;0.90;0.80;;;;;;;22.15;32.51;100145.94;7391972;19;20280;-83
2023/04/25 09:14:37;;;;;;;0.65;0.52;;;;;;;19.65;33.93;100138.72;7391028;19;20035;-83
2023/04/25 09:17:08;;;;;;;;;;;;;;;19.19;35.40;100147.41;7389066;19;20368;-82
2023/04/25 09:20:13;;;;;;;1.95;0.32;;;;;;;22.28;32.20;100143.84;7388222;19;19989;-83
2023/04/25 09:22:39;;;;;;;0.70;0.70;;;;;;;19.89;33.08;100145.63;7388967;19;20022;-81
2023/04/25 09:25:11;;;;;;;0.85;0.70;;;;;;;21.16;33.18;100140.91;7388442;19;20010;-81
2023/04/25 09:27:51;;;;;;;0.50;0.50;;;;;;;22.72;32.44;100139.22;7387145;19;20014;-82
2023/04/25 09:30:32;;;;;;;0.30;0.30;;;;;;;22.79;31.32;100132.84;7388329;19;20010;-81
2023/04/25 09:33:06;;;;;;;0.77;0.50;;;;;;;22.72;31.24;100136.38;7390222;19;20015;-81
2023/04/25 09:35:41;;;;;;;0.60;0.40;;;;;;;22.40;32.20;100142.28;7387843;19;20450;-81
2023/04/25 09:38:14;;;;;;;0.30;0.30;;;;;;;22.01;32.11;100138.75;7385649;19;20419;-81
2023/04/25 09:40:51;;;;;;;0.57;0.57;;;;;;;23.17;31.15;100138.88;7387288;19;20035;-81
2023/04/25 09:43:25;;;;;;;1.55;0.70;;;;;;;23.33;30.88;100129.94;7389184;19;20019;-82
2023/04/25 09:45:57;;;;;;;2.70;0.50;;;;;;;23.50;30.94;100132.31;7385850;19;20113;-82
2023/04/25 09:48:24;;;;;;;;;;;;;;;23.65;31.14;100132.38;7389100;19;20019;-82
2023/04/25 09:51:15;;;;;;;2.10;0.82;;;;;;;23.86;30.46;100141.63;7388584;19;19922;-83
2023/04/25 09:53:51;;;;;;;0.30;0.30;;;;;;;23.91;29.22;100137.84;7395209;19;20512;-82
2023/04/25 09:56:36;;;;;;;0.32;0.32;;;;;;;24.13;29.30;100138.56;7397104;19;20014;-81
2023/04/25 09:59:04;;;;;;;;;;;;;;;24.47;29.58;100136.19;7391552;19;20039;-81
2023/04/25 10:01:34;;;;;;;7.50;2.00;;;;;;;24.47;29.35;100142.63;7392762;19;19943;-82
2023/04/25 10:04:11;;;;;;;3.88;0.82;;;;;;;24.83;28.03;100134.00;7392282;19;20370;-81
2023/04/25 10:06:56;;;;;;;0.60;0.60;;;;;;;25.31;27.43;100132.88;7391305;19;20019;-81
2023/04/25 10:09:25;;;;;;;0.50;0.50;;;;;;;25.42;28.00;100138.22;7394595;19;20018;-81
2023/04/25 10:11:52;;;;;;;0.90;0.50;;;;;;;25.76;27.20;100137.00;7396648;19;20018;-81
2023/04/25 10:14:19;;;;;;;0.40;0.40;;;;;;;25.34;26.76;100137.41;7396315;19;20363;-82
2023/04/25 10:16:47;;;;;;;0.20;0.20;;;;;;;25.17;27.36;100142.94;7395155;19;20022;-83
2023/04/25 10:19:13;;;;;;;0.90;0.32;;;;;;;24.72;27.92;100140.03;7392229;19;20035;-81
2023/04/25 10:21:48;;;;;;;0.68;0.43;;;;;;;25.30;26.01;100142.75;7393906;19;20018;-82
2023/04/25 10:24:15;;;;;;;0.43;0.43;;;;;;;25.25;26.30;100138.00;7393751;19;20077;-82
2023/04/25 10:26:41;;;;;;;0.40;0.40;;;;;;;24.54;26.70;100141.13;7396789;19;20018;-83
2023/04/25 10:29:09;;;;;;;0.88;0.63;;;;;;;24.49;26.80;100144.94;7394744;19;20556;-83
2023/04/25 10:31:45;;;;;;;0.30;0.30;;;;;;;21.21;29.28;100153.44;7395254;19;20025;-82
2023/04/25 10:34:11;;;;;;;0.50;0.50;;;;;;;22.71;29.10;100165.34;7395052;19;20018;-83
2023/04/25 10:36:38;;;;;;;0.77;0.50;;;;;;;24.03;27.47;100150.44;7393367;19;20025;-82
2023/04/25 10:39:11;;;;;;;1.77;0.65;;;;;;;23.38;27.08;100153.84;7392206;19;20038;-82
2023/04/25 10:41:48;;;;;;;0.50;0.40;;;;;;;23.59;26.43;100146.00;7393669;19;20019;-82
2023/04/25 10:44:15;;;;;;;0.50;0.22;;;;;;;23.80;26.73;100137.44;7391920;19;20038;-83
2023/04/25 10:46:41;;;;;;;2.08;0.50;;;;;;;23.07;26.95;100137.81;7393280;19;20497;-83
2023/04/25 10:49:09;;;;;;;0.47;0.47;;;;;;;20.64;29.02;100152.81;7393180;19;20469;-81
2023/04/25 10:51:36;;;;;;;0.55;0.40;;;;;;;23.10;27.12;100139.56;7393897;19;20048;-81
2023/04/25 10:54:04;;;;;;;1.42;0.70;;;;;;;23.62;27.24;100136.38;7394501;19;20545;-81
2023/04/25 10:56:39;;;;;;;0.95;0.22;;;;;;;17.08;33.25;100141.31;7395818;19;20042;-82
2023/04/25 10:59:06;;;;;;;0.65;0.63;;;;;;;23.39;28.22;100132.59;7395075;19;20031;-81
2023/04/25 11:01:45;;;;;;;0.22;0.22;;;;;;;21.19;30.16;100134.16;7394546;19;20022;-81
2023/04/25 11:04:33;;;;;;;2.50;0.55;;;;;;;24.20;28.24;100134.97;7393355;19;20035;-83
2023/04/25 11:07:02;;;;;;;0.98;0.88;;;;;;;18.13;31.42;100138.19;7393174;19;20043;-81
2023/04/25 11:09:29;;;;;;;0.38;0.38;;;;;;;23.41;28.75;100129.22;7395105;19;20017;-81
2023/04/25 11:11:58;;;;;;;1.25;0.73;;;;;;;24.32;27.67;100119.06;7394932;19;20022;-82
2023/04/25 11:14:24;;;;;;;0.40;0.40;;;;;;;23.97;27.08;100124.22;7392771;19;20379;-83
2023/04/25 11:16:55;;;;;;;0.30;0.30;;;;;;;24.36;27.40;100125.91;7392385;19;20018;-82
2023/04/25 11:19:22;;;;;;;0.40;0.40;;;;;;;25.91;25.92;100114.88;7393108;19;20015;-80
2023/04/25 11:21:48;;;;;;;1.80;1.30;;;;;;;26.64;25.52;100116.41;7392062;19;20018;-80
2023/04/25 11:24:16;;;;;;;1.98;1.05;;;;;;;26.62;25.71;100106.91;7390233;19;20437;-81
2023/04/25 11:26:43;;;;;;;0.93;0.70;;;;;;;26.87;25.62;100113.44;7394360;19;20025;-81
2023/04/25 11:29:09;;;;;;;0.57;0.40;;;;;;;26.04;25.26;100116.72;7392768;19;20039;-80
2023/04/25 11:31:36;;;;;;;0.65;0.45;;;;;;;26.18;24.87;100121.63;7393364;19;20014;-81
2023/04/25 11:34:02;;;;;;;0.77;0.57;;;;;;;25.64;24.64;100115.91;7391283;19;20026;-80
2023/04/25 11:36:28;;;;;;;0.75;0.75;;;;;;;26.35;24.89;100112.41;7391427;19;20010;-80
2023/04/25 11:38:55;;;;;;;0.95;0.55;;;;;;;26.28;24.93;100111.13;7391505;19;20022;-80
2023/04/25 11:41:22;;;;;;;0.80;0.57;;;;;;;25.62;24.35;100122.19;7391539;19;20022;-80
2023/04/25 11:43:49;;;;;;;0.50;0.50;;;;;;;26.33;23.91;100121.53;7397884;19;20018;-80
2023/04/25 11:46:15;;;;;;;1.48;0.75;;;;;;;26.13;24.89;100116.16;7391739;19;20474;-80